Time;durP1;ratioP1;P1;durP2;ratioP2;P2;SDS_P1;SDS_P2;PMS_P1;PMS_P2;Temp;Humidity;BMP_temperature;BMP_pressure;BME280_temperature;BME280_humidity;BME280_pressure;Samples;Min_cycle;Max_cycle;Signal;HPM_P1;HPM_P2
2024/02/21 00:00:46;;;;;;;24.20;12.48;;;9.30;99.90;;;;;;4967252;28;20029;-91
2024/02/21 00:03:12;;;;;;;29.13;13.00;;;9.30;99.90;;;;;;4974513;28;20026;-89
2024/02/21 00:05:37;;;;;;;22.90;11.27;;;9.30;99.90;;;;;;4976305;28;20089;-90
2024/02/21 00:08:03;;;;;;;26.90;12.77;;;9.30;99.90;;;;;;4975702;28;20038;-90
2024/02/21 00:10:31;;;;;;;34.00;12.27;;;9.30;99.90;;;;;;4982895;28;20034;-90
2024/02/21 00:12:57;;;;;;;28.17;12.13;;;9.30;99.90;;;;;;4976039;28;20022;-90
2024/02/21 00:15:22;;;;;;;32.53;13.63;;;9.30;99.90;;;;;;4981579;28;20042;-90
2024/02/21 00:17:48;;;;;;;25.35;11.77;;;9.30;99.90;;;;;;4976543;28;20026;-89
2024/02/21 00:20:14;;;;;;;27.25;12.30;;;9.30;99.90;;;;;;4972976;28;20421;-90
2024/02/21 00:22:40;;;;;;;29.70;12.75;;;9.30;99.90;;;;;;4957635;28;20034;-90
2024/02/21 00:25:06;;;;;;;21.08;11.25;;;9.30;99.90;;;;;;4964183;28;20030;-90
2024/02/21 00:27:32;;;;;;;30.55;12.43;;;9.30;99.90;;;;;;4978375;28;20034;-89
2024/02/21 00:29:57;;;;;;;28.50;11.25;;;9.30;99.90;;;;;;4974665;28;20035;-90
2024/02/21 00:32:23;;;;;;;25.20;10.57;;;9.30;99.90;;;;;;4986703;28;20081;-90
2024/02/21 00:34:48;;;;;;;33.92;12.80;;;9.30;99.90;;;;;;4967038;28;20479;-90
2024/02/21 00:37:14;;;;;;;24.92;11.20;;;9.30;99.90;;;;;;4987357;28;20027;-90
2024/02/21 00:39:40;;;;;;;21.85;10.60;;;9.30;99.90;;;;;;4994067;28;20026;-90
2024/02/21 00:42:07;;;;;;;30.50;11.65;;;9.20;99.90;;;;;;4981793;28;20030;-90
2024/02/21 00:44:32;;;;;;;24.00;10.65;;;9.20;99.90;;;;;;4992575;28;20026;-90
2024/02/21 00:46:58;;;;;;;19.85;10.23;;;9.20;99.90;;;;;;4974576;28;20027;-90
2024/02/21 00:49:24;;;;;;;20.40;10.18;;;9.20;99.90;;;;;;4992737;28;20515;-91
2024/02/21 00:51:49;;;;;;;23.92;10.10;;;9.20;99.90;;;;;;4995429;28;20417;-89
2024/02/21 00:54:16;;;;;;;22.98;11.20;;;9.20;99.90;;;;;;4993055;28;20030;-90
2024/02/21 00:56:42;;;;;;;22.88;11.85;;;9.20;99.90;;;;;;4972076;28;20038;-89
2024/02/21 00:59:07;;;;;;;24.10;11.20;;;9.20;99.90;;;;;;4979202;28;20022;-89
2024/02/21 01:01:33;;;;;;;28.73;10.52;;;9.20;99.90;;;;;;4973500;28;20123;-91
2024/02/21 01:03:59;;;;;;;21.38;10.55;;;9.20;99.90;;;;;;4971873;28;20018;-90
2024/02/21 01:06:24;;;;;;;24.40;10.05;;;9.20;99.90;;;;;;4972856;28;20030;-89
2024/02/21 01:08:50;;;;;;;27.13;11.02;;;9.20;99.90;;;;;;4965542;28;20030;-90
2024/02/21 01:11:16;;;;;;;26.35;11.05;;;9.20;99.90;;;;;;4987892;28;20037;-89
2024/02/21 01:13:42;;;;;;;23.45;10.82;;;9.20;99.90;;;;;;4972729;28;20027;-88
2024/02/21 01:16:07;;;;;;;25.52;12.15;;;9.20;99.90;;;;;;4992152;28;20026;-89
2024/02/21 01:18:34;;;;;;;25.70;12.02;;;9.20;99.90;;;;;;4985744;28;20031;-89
2024/02/21 01:20:59;;;;;;;26.17;10.55;;;9.20;99.90;;;;;;4969513;28;20022;-90
2024/02/21 01:23:25;;;;;;;23.17;11.23;;;9.20;99.90;;;;;;4983048;28;20039;-89
2024/02/21 01:25:51;;;;;;;34.70;11.82;;;9.20;99.90;;;;;;4966715;28;20030;-90
2024/02/21 01:28:18;;;;;;;19.77;10.27;;;9.20;99.90;;;;;;4973752;28;20054;-90
2024/02/21 01:30:43;;;;;;;28.35;10.82;;;9.20;99.90;;;;;;4971718;28;20400;-89
2024/02/21 01:33:09;;;;;;;27.60;10.57;;;9.20;99.90;;;;;;4994817;28;20037;-89
2024/02/21 01:35:35;;;;;;;27.85;11.07;;;9.20;99.90;;;;;;4977774;28;20479;-89
2024/02/21 01:38:01;;;;;;;29.75;10.98;;;9.20;99.90;;;;;;4971355;28;20065;-91
2024/02/21 01:40:27;;;;;;;25.20;10.98;;;9.20;99.90;;;;;;4997209;28;20038;-90
2024/02/21 01:42:55;;;;;;;25.40;11.32;;;9.20;99.90;;;;;;4986381;28;20038;-89
2024/02/21 01:45:21;;;;;;;21.92;10.40;;;9.10;99.90;;;;;;4970375;28;20475;-90
2024/02/21 01:47:47;;;;;;;20.33;11.15;;;9.20;99.90;;;;;;4986247;28;20117;-90
2024/02/21 01:50:14;;;;;;;24.58;10.82;;;9.20;99.90;;;;;;5004402;28;20103;-89
2024/02/21 01:52:40;;;;;;;25.80;11.27;;;9.20;99.90;;;;;;4993316;28;20023;-89
2024/02/21 01:55:07;;;;;;;26.27;11.40;;;9.20;99.90;;;;;;4992008;28;20030;-89
2024/02/21 01:57:33;;;;;;;22.88;11.32;;;9.20;99.90;;;;;;4977495;28;20500;-90
2024/02/21 01:59:59;;;;;;;28.58;12.30;;;9.20;99.90;;;;;;4964863;28;20037;-89
2024/02/21 02:02:26;;;;;;;30.90;11.32;;;9.10;99.90;;;;;;4987298;28;20047;-88
2024/02/21 02:04:52;;;;;;;25.52;11.18;;;9.20;99.90;;;;;;4974820;28;20026;-88
2024/02/21 02:07:18;;;;;;;26.08;11.13;;;9.10;99.90;;;;;;4975373;28;20026;-89
2024/02/21 02:09:43;;;;;;;24.15;10.40;;;9.20;99.90;;;;;;4976540;28;20038;-89
2024/02/21 02:12:09;;;;;;;27.65;11.35;;;9.10;99.90;;;;;;4974201;28;20018;-89
2024/02/21 02:14:34;;;;;;;22.17;10.73;;;9.10;99.90;;;;;;4966135;28;20085;-89
2024/02/21 02:17:00;;;;;;;23.40;11.60;;;9.20;99.90;;;;;;4974098;28;20041;-89
2024/02/21 02:19:26;;;;;;;28.10;11.27;;;9.10;99.90;;;;;;4972803;28;20022;-90
2024/02/21 02:21:56;;;;;;;21.92;10.63;;;9.10;99.90;;;;;;4992184;28;20030;-88
2024/02/21 02:24:25;;;;;;;25.67;11.25;;;9.10;99.90;;;;;;4992405;28;20030;-90
2024/02/21 02:26:51;;;;;;;27.75;11.50;;;9.10;99.90;;;;;;4983018;28;20573;-89
2024/02/21 02:29:17;;;;;;;24.98;10.20;;;9.10;99.90;;;;;;4976598;28;20038;-89
2024/02/21 02:31:42;;;;;;;23.75;10.32;;;9.10;99.90;;;;;;4983505;28;20027;-89
2024/02/21 02:34:09;;;;;;;22.95;9.93;;;9.10;99.90;;;;;;4998072;28;20022;-88
2024/02/21 02:36:35;;;;;;;20.67;9.00;;;9.10;99.90;;;;;;4993331;28;20030;-90
2024/02/21 02:39:01;;;;;;;22.50;9.50;;;9.10;99.90;;;;;;4972689;28;20576;-89
2024/02/21 02:41:26;;;;;;;19.40;8.95;;;9.10;99.90;;;;;;4961955;28;20094;-90
2024/02/21 02:43:52;;;;;;;24.27;9.52;;;9.10;99.90;;;;;;4992239;28;20069;-89
2024/02/21 02:46:17;;;;;;;22.27;8.77;;;9.10;99.90;;;;;;4994607;28;20529;-89
2024/02/21 02:48:44;;;;;;;20.98;8.95;;;9.10;99.90;;;;;;4996901;28;20025;-90
2024/02/21 02:51:10;;;;;;;17.90;7.88;;;9.10;99.90;;;;;;4990406;28;20070;-89
2024/02/21 02:53:35;;;;;;;21.67;8.32;;;9.10;99.90;;;;;;4972110;28;20050;-89
2024/02/21 02:56:01;;;;;;;21.95;7.78;;;9.10;99.90;;;;;;4977499;28;20089;-89
2024/02/21 02:58:27;;;;;;;17.40;7.90;;;9.10;99.90;;;;;;4992901;28;20076;-90
2024/02/21 03:00:52;;;;;;;16.95;7.80;;;9.10;99.90;;;;;;4971738;28;20121;-89
2024/02/21 03:03:18;;;;;;;19.98;7.70;;;9.10;99.90;;;;;;4978094;28;20034;-89
2024/02/21 03:05:44;;;;;;;20.63;7.88;;;9.10;99.90;;;;;;4994172;28;20053;-89
2024/02/21 03:08:09;;;;;;;21.15;7.45;;;9.10;99.90;;;;;;4993857;28;20029;-90
2024/02/21 03:10:35;;;;;;;19.70;7.50;;;9.10;99.90;;;;;;4996617;28;20046;-88
2024/02/21 03:13:01;;;;;;;17.20;6.75;;;9.10;99.90;;;;;;4985432;28;20034;-88
2024/02/21 03:15:27;;;;;;;21.77;8.70;;;9.10;99.90;;;;;;4975170;28;20035;-89
2024/02/21 03:17:52;;;;;;;17.40;6.32;;;9.10;99.90;;;;;;4984755;28;20112;-89
2024/02/21 03:20:19;;;;;;;15.07;6.03;;;9.10;99.90;;;;;;4995208;28;20029;-88
2024/02/21 03:22:45;;;;;;;15.85;6.28;;;9.10;99.90;;;;;;4996388;28;20490;-89
2024/02/21 03:25:12;;;;;;;15.85;5.75;;;9.10;99.90;;;;;;4983126;28;20030;-88
2024/02/21 03:27:38;;;;;;;12.75;5.65;;;9.10;99.90;;;;;;4987361;28;20026;-90
2024/02/21 03:30:04;;;;;;;33.55;7.50;;;9.10;99.90;;;;;;4979338;28;20035;-89
2024/02/21 03:32:30;;;;;;;17.20;5.80;;;9.10;99.90;;;;;;4983360;28;20477;-90
2024/02/21 03:34:56;;;;;;;17.50;6.57;;;9.10;99.90;;;;;;4978474;28;20113;-89
2024/02/21 03:37:21;;;;;;;23.95;6.38;;;9.10;99.90;;;;;;4992072;28;20026;-90
2024/02/21 03:39:47;;;;;;;18.23;5.53;;;9.10;99.90;;;;;;4991355;28;20389;-89
2024/02/21 03:42:13;;;;;;;15.68;5.53;;;9.10;99.90;;;;;;4973526;28;20026;-89
2024/02/21 03:44:39;;;;;;;11.27;4.78;;;9.10;99.90;;;;;;4963387;28;20049;-89
2024/02/21 03:47:05;;;;;;;13.48;5.78;;;9.10;99.90;;;;;;4987183;28;20084;-89
2024/02/21 03:49:30;;;;;;;15.25;5.53;;;9.10;99.90;;;;;;4988488;28;20034;-90
2024/02/21 03:51:56;;;;;;;10.40;4.95;;;9.10;99.90;;;;;;4975411;28;20027;-90
2024/02/21 03:54:22;;;;;;;13.23;5.13;;;9.10;99.90;;;;;;4991564;28;20165;-89
2024/02/21 03:56:48;;;;;;;17.15;5.65;;;9.10;99.90;;;;;;4976332;28;20045;-89
2024/02/21 03:59:14;;;;;;;12.75;5.18;;;9.10;99.90;;;;;;4992947;28;20030;-89
2024/02/21 04:01:40;;;;;;;12.10;4.72;;;9.10;99.90;;;;;;4975085;28;20025;-88
2024/02/21 04:04:06;;;;;;;12.50;4.80;;;9.10;99.90;;;;;;4971500;28;20474;-89
2024/02/21 04:06:32;;;;;;;19.85;5.78;;;9.10;99.90;;;;;;4967837;28;20505;-89
2024/02/21 04:08:57;;;;;;;20.52;5.30;;;9.10;99.90;;;;;;4987919;28;20038;-89
2024/02/21 04:11:23;;;;;;;11.65;5.05;;;9.10;99.90;;;;;;4972529;28;20913;-90
2024/02/21 04:13:50;;;;;;;8.93;4.30;;;9.10;99.90;;;;;;4975967;28;20482;-90
2024/02/21 04:16:16;;;;;;;16.00;5.68;;;9.10;99.90;;;;;;4975926;28;20026;-89
2024/02/21 04:18:42;;;;;;;11.77;4.53;;;9.10;99.90;;;;;;4974016;28;20116;-89
2024/02/21 04:21:08;;;;;;;12.57;5.43;;;9.10;99.90;;;;;;4977998;28;20112;-89
2024/02/21 04:23:33;;;;;;;15.13;5.88;;;9.10;99.90;;;;;;4987533;28;20536;-90
2024/02/21 04:25:59;;;;;;;14.23;5.38;;;9.10;99.90;;;;;;4975559;28;20026;-89
2024/02/21 04:28:24;;;;;;;14.93;5.50;;;9.10;99.90;;;;;;4972869;28;20023;-89
2024/02/21 04:30:50;;;;;;;13.30;5.45;;;9.10;99.90;;;;;;4984982;28;20042;-89
2024/02/21 04:33:16;;;;;;;13.77;5.10;;;9.10;99.90;;;;;;4981038;28;20037;-89
2024/02/21 04:35:41;;;;;;;14.93;5.80;;;9.00;99.90;;;;;;4974919;28;20031;-89
2024/02/21 04:38:07;;;;;;;17.80;5.50;;;9.10;99.90;;;;;;4974815;28;20023;-89
2024/02/21 04:40:33;;;;;;;9.70;5.10;;;9.10;99.90;;;;;;4974495;28;20037;-88
2024/02/21 04:42:58;;;;;;;15.63;6.25;;;9.10;99.90;;;;;;4976027;28;20018;-88
2024/02/21 04:45:24;;;;;;;14.93;5.93;;;9.10;99.90;;;;;;4968793;28;20035;-89
2024/02/21 04:47:49;;;;;;;17.83;7.05;;;9.10;99.90;;;;;;4976517;28;20446;-88
2024/02/21 04:50:15;;;;;;;17.13;7.30;;;9.10;99.90;;;;;;4990883;28;20113;-89
2024/02/21 04:52:40;;;;;;;20.15;7.47;;;9.10;99.90;;;;;;4974509;28;20031;-88
2024/02/21 04:55:07;;;;;;;15.90;7.28;;;9.10;99.90;;;;;;4974037;28;20023;-89
2024/02/21 04:57:32;;;;;;;13.48;6.40;;;9.10;99.90;;;;;;4976660;28;20142;-89
2024/02/21 04:59:58;;;;;;;15.15;6.97;;;9.10;99.90;;;;;;4975104;28;20109;-89
2024/02/21 05:02:24;;;;;;;17.73;7.35;;;9.20;99.90;;;;;;4966274;28;20027;-90
2024/02/21 05:04:50;;;;;;;18.23;7.20;;;9.10;99.90;;;;;;5001112;28;20057;-89
2024/02/21 05:07:16;;;;;;;15.43;7.40;;;9.10;99.90;;;;;;4978083;28;20034;-89
2024/02/21 05:09:45;;;;;;;15.32;7.65;;;9.10;99.90;;;;;;4976902;28;20046;-89
2024/02/21 05:12:11;;;;;;;14.93;7.20;;;9.10;99.90;;;;;;4971811;28;20029;-89
2024/02/21 05:14:37;;;;;;;11.85;7.30;;;9.10;99.90;;;;;;4969981;28;20031;-89
2024/02/21 05:17:03;;;;;;;18.35;7.55;;;9.10;99.90;;;;;;4992544;28;20037;-91
2024/02/21 05:19:29;;;;;;;20.58;8.88;;;9.10;99.90;;;;;;4979356;28;20033;-89
2024/02/21 05:21:55;;;;;;;20.52;8.45;;;9.10;99.90;;;;;;4995071;28;20530;-90
2024/02/21 05:24:21;;;;;;;18.00;8.00;;;9.10;99.90;;;;;;4978227;28;20027;-89
2024/02/21 05:26:47;;;;;;;24.02;8.93;;;9.10;99.90;;;;;;4989015;28;20927;-90
2024/02/21 05:29:13;;;;;;;21.92;8.50;;;9.10;99.90;;;;;;4978401;28;20034;-89
2024/02/21 05:31:50;;;;;;;17.90;8.68;;;9.10;99.90;;;;;;4980249;28;20030;-90
2024/02/21 05:34:16;;;;;;;14.98;8.57;;;9.10;99.90;;;;;;4980166;28;20497;-90
2024/02/21 05:36:42;;;;;;;20.35;8.82;;;9.10;99.90;;;;;;4982462;28;20031;-91
2024/02/21 05:39:08;;;;;;;18.10;8.57;;;9.10;99.90;;;;;;4977052;28;20037;-90
2024/02/21 05:41:33;;;;;;;17.77;8.13;;;9.10;99.90;;;;;;4979948;28;20126;-91
2024/02/21 05:43:59;;;;;;;17.45;7.65;;;9.10;99.90;;;;;;4972230;28;20030;-90
2024/02/21 05:46:24;;;;;;;13.88;7.53;;;9.10;99.90;;;;;;4993269;28;20027;-90
2024/02/21 05:48:50;;;;;;;18.20;8.23;;;9.10;99.90;;;;;;4975034;28;20089;-90
2024/02/21 05:51:16;;;;;;;15.63;7.25;;;9.10;99.90;;;;;;4979325;28;20030;-91
2024/02/21 05:53:41;;;;;;;19.30;7.70;;;9.10;99.90;;;;;;4979470;28;20029;-89
2024/02/21 05:56:13;;;;;;;15.88;7.22;;;9.10;99.90;;;;;;4979061;28;20478;-90
2024/02/21 05:58:39;;;;;;;13.85;6.82;;;9.10;99.90;;;;;;4980044;28;20037;-89
2024/02/21 06:01:06;;;;;;;16.42;6.95;;;9.10;99.90;;;;;;4978633;28;20501;-90
2024/02/21 06:03:32;;;;;;;18.88;7.25;;;9.10;99.90;;;;;;4971358;28;20395;-90
2024/02/21 06:05:58;;;;;;;16.77;6.82;;;9.10;99.90;;;;;;4975433;28;20490;-89
2024/02/21 06:08:24;;;;;;;16.85;7.45;;;9.10;99.90;;;;;;4979315;28;20022;-90
2024/02/21 06:10:54;;;;;;;16.60;7.32;;;9.10;99.90;;;;;;4997469;28;20057;-89
2024/02/21 06:13:26;;;;;;;13.73;6.60;;;9.20;99.90;;;;;;4982265;28;20026;-90
2024/02/21 06:15:51;;;;;;;16.50;5.82;;;9.10;99.90;;;;;;4994257;28;20031;-91
2024/02/21 06:18:21;;;;;;;16.65;6.95;;;9.20;99.90;;;;;;4975915;28;20053;-89
2024/02/21 06:20:46;;;;;;;17.52;6.18;;;9.10;99.90;;;;;;4976671;28;20033;-90
2024/02/21 06:23:13;;;;;;;19.25;7.35;;;9.10;99.90;;;;;;4994864;28;20014;-89
2024/02/21 06:25:39;;;;;;;17.08;7.50;;;9.10;99.90;;;;;;4975660;28;20037;-89
2024/02/21 06:28:05;;;;;;;18.75;6.65;;;9.10;99.90;;;;;;4978495;28;20022;-89
2024/02/21 06:30:31;;;;;;;20.30;6.53;;;9.10;99.90;;;;;;4978600;28;20046;-91
2024/02/21 06:32:57;;;;;;;12.95;6.53;;;9.10;99.90;;;;;;4990470;28;20027;-91
2024/02/21 06:35:25;;;;;;;15.68;7.15;;;9.10;99.90;;;;;;4994832;28;20117;-90
2024/02/21 06:37:51;;;;;;;16.52;6.65;;;9.00;99.90;;;;;;4995813;28;20521;-90
2024/02/21 06:40:21;;;;;;;17.70;6.47;;;9.10;99.90;;;;;;5000964;28;20105;-92
2024/02/21 06:42:47;;;;;;;17.38;7.13;;;9.10;99.90;;;;;;4979644;28;20027;-90
2024/02/21 06:45:13;;;;;;;17.33;7.18;;;9.00;99.90;;;;;;4976565;28;20077;-91
2024/02/21 06:47:38;;;;;;;20.27;7.10;;;9.10;99.90;;;;;;4990197;28;20398;-91
2024/02/21 06:50:04;;;;;;;23.95;8.25;;;9.00;99.90;;;;;;4976082;28;20049;-89
2024/02/21 06:52:30;;;;;;;18.27;7.05;;;9.10;99.90;;;;;;4979200;28;20034;-90
2024/02/21 06:54:56;;;;;;;16.02;6.85;;;9.10;99.90;;;;;;4977453;28;20468;-91
2024/02/21 06:57:22;;;;;;;19.80;7.40;;;9.10;99.90;;;;;;4975550;28;20042;-91
2024/02/21 06:59:48;;;;;;;19.33;7.07;;;9.00;99.90;;;;;;4977591;28;20038;-91
2024/02/21 07:02:13;;;;;;;16.30;7.28;;;9.00;99.90;;;;;;4997293;28;20094;-91
2024/02/21 07:04:39;;;;;;;15.50;6.32;;;9.00;99.90;;;;;;4975243;28;20034;-90
2024/02/21 07:07:04;;;;;;;18.25;7.50;;;9.00;99.90;;;;;;4975625;28;20019;-91
2024/02/21 07:09:31;;;;;;;18.88;6.68;;;9.00;99.90;;;;;;4972952;28;20105;-91
2024/02/21 07:11:58;;;;;;;15.52;6.85;;;9.00;99.90;;;;;;4974169;28;20512;-92
2024/02/21 07:14:23;;;;;;;13.77;6.15;;;9.10;99.90;;;;;;4987584;28;20049;-92
2024/02/21 07:16:49;;;;;;;15.65;6.65;;;9.10;99.90;;;;;;4968304;28;20050;-90
2024/02/21 07:19:14;;;;;;;21.70;7.55;;;9.10;99.90;;;;;;4982957;28;20038;-92
2024/02/21 07:21:42;;;;;;;16.33;6.75;;;9.10;99.90;;;;;;4983376;28;20046;-91
2024/02/21 07:24:08;;;;;;;14.95;7.07;;;9.10;99.90;;;;;;4972248;28;20463;-89
2024/02/21 07:26:33;;;;;;;12.27;6.43;;;9.10;99.90;;;;;;4972620;28;20077;-93
2024/02/21 07:28:59;;;;;;;14.35;6.43;;;9.10;99.90;;;;;;4975373;28;20034;-93
2024/02/21 07:31:25;;;;;;;14.05;6.10;;;9.10;99.90;;;;;;4985397;28;20034;-92
2024/02/21 07:33:50;;;;;;;15.35;6.40;;;9.10;99.90;;;;;;4990443;28;20113;-92
2024/02/21 07:36:24;;;;;;;16.05;6.38;;;9.20;99.90;;;;;;4981337;28;20080;-92
2024/02/21 07:38:50;;;;;;;17.05;7.53;;;9.10;99.90;;;;;;4990411;28;20470;-85
2024/02/21 07:41:15;;;;;;;18.73;7.13;;;9.20;99.90;;;;;;4988251;28;20034;-91
2024/02/21 07:43:41;;;;;;;17.90;6.80;;;9.20;99.90;;;;;;4970048;28;20027;-90
2024/02/21 07:46:06;;;;;;;17.80;7.15;;;9.20;99.90;;;;;;4973078;28;20027;-89
2024/02/21 07:48:32;;;;;;;17.83;7.22;;;9.20;99.90;;;;;;4970788;28;20053;-90
2024/02/21 07:50:58;;;;;;;16.20;7.25;;;9.10;99.90;;;;;;4976121;28;20438;-89
2024/02/21 07:53:23;;;;;;;15.25;6.40;;;9.10;99.90;;;;;;4975718;28;20034;-89
2024/02/21 07:55:49;;;;;;;18.63;7.68;;;9.10;99.90;;;;;;4962327;28;20026;-90
2024/02/21 07:58:14;;;;;;;18.70;7.25;;;9.10;99.90;;;;;;4975983;28;20085;-90
2024/02/21 08:00:40;;;;;;;16.02;7.57;;;9.10;99.90;;;;;;4972730;28;20494;-91
2024/02/21 08:03:05;;;;;;;17.15;7.80;;;9.20;99.90;;;;;;4967092;28;20038;-89
2024/02/21 08:05:34;;;;;;;15.82;7.00;;;9.20;99.90;;;;;;4970892;28;20030;-89
2024/02/21 08:08:00;;;;;;;16.23;7.00;;;9.20;99.90;;;;;;4975702;28;20061;-91
2024/02/21 08:10:25;;;;;;;23.67;8.10;;;9.20;99.90;;;;;;4973156;28;20180;-91
2024/02/21 08:12:51;;;;;;;16.45;7.95;;;9.20;99.90;;;;;;4974192;28;20033;-90
2024/02/21 08:15:17;;;;;;;16.05;7.10;;;9.20;99.90;;;;;;4976090;28;20077;-89
2024/02/21 08:17:43;;;;;;;14.75;8.23;;;9.20;99.90;;;;;;4975474;28;20077;-90
2024/02/21 08:20:09;;;;;;;17.05;6.97;;;9.30;99.90;;;;;;4976289;28;20117;-89
2024/02/21 08:22:37;;;;;;;16.77;7.43;;;9.30;99.90;;;;;;4970993;28;20023;-89
2024/02/21 08:25:05;;;;;;;17.08;7.90;;;9.40;99.90;;;;;;4969733;28;20033;-90
2024/02/21 08:27:31;;;;;;;13.30;7.95;;;9.40;99.90;;;;;;4972166;28;20026;-89
2024/02/21 08:29:56;;;;;;;20.63;8.07;;;9.40;99.90;;;;;;4972055;28;20517;-91
2024/02/21 08:32:22;;;;;;;18.95;7.65;;;9.50;99.90;;;;;;4973878;28;20112;-89
2024/02/21 08:34:47;;;;;;;16.48;8.27;;;9.50;99.90;;;;;;4982327;28;20034;-90
2024/02/21 08:37:13;;;;;;;19.80;8.45;;;9.50;99.90;;;;;;4960195;28;20037;-89
2024/02/21 08:39:38;;;;;;;15.30;8.48;;;9.50;99.90;;;;;;4969232;28;20022;-91
2024/02/21 08:42:05;;;;;;;17.52;8.13;;;9.50;99.90;;;;;;4986043;28;20050;-91
2024/02/21 08:44:30;;;;;;;15.20;7.82;;;9.50;99.90;;;;;;4971116;28;20490;-90
2024/02/21 08:46:56;;;;;;;16.17;7.47;;;9.60;99.90;;;;;;4971141;28;20037;-89
2024/02/21 08:49:22;;;;;;;12.70;7.78;;;9.60;99.90;;;;;;4973451;28;20031;-90
2024/02/21 08:51:47;;;;;;;25.13;9.00;;;9.60;99.90;;;;;;4972713;28;20041;-90
2024/02/21 08:54:13;;;;;;;14.70;8.30;;;9.70;99.90;;;;;;4968516;28;20506;-89
2024/02/21 08:56:39;;;;;;;15.15;7.10;;;9.60;99.90;;;;;;4974015;28;20096;-87
2024/02/21 08:59:04;;;;;;;15.90;8.25;;;9.60;99.90;;;;;;4975088;28;20031;-88
2024/02/21 09:01:30;;;;;;;15.60;7.45;;;9.70;99.90;;;;;;4996690;28;20026;-87
2024/02/21 09:03:56;;;;;;;16.58;7.60;;;9.70;99.90;;;;;;4970841;28;20034;-87
2024/02/21 09:06:22;;;;;;;14.52;7.60;;;9.70;99.90;;;;;;4994182;28;20403;-88
2024/02/21 09:08:48;;;;;;;15.60;7.53;;;9.80;99.90;;;;;;4986887;28;20026;-88
2024/02/21 09:11:13;;;;;;;13.75;7.25;;;9.80;99.90;;;;;;4993046;28;20072;-88
2024/02/21 09:13:39;;;;;;;14.68;7.47;;;9.80;99.90;;;;;;4974941;28;20033;-89
2024/02/21 09:16:05;;;;;;;11.60;7.20;;;9.80;99.90;;;;;;4972003;28;20057;-89
2024/02/21 09:18:31;;;;;;;15.68;6.65;;;9.80;99.90;;;;;;4974941;28;20029;-88
2024/02/21 09:20:57;;;;;;;13.15;6.38;;;9.90;99.90;;;;;;4991825;28;20479;-88
2024/02/21 09:23:25;;;;;;;13.52;6.43;;;9.90;99.90;;;;;;4992674;28;20090;-87
2024/02/21 09:25:51;;;;;;;9.57;5.82;;;10.00;99.90;;;;;;4974083;28;20022;-88
2024/02/21 09:28:17;;;;;;;13.95;6.32;;;10.10;99.90;;;;;;4992814;28;20026;-88
2024/02/21 09:30:42;;;;;;;10.55;5.15;;;10.10;99.90;;;;;;4959357;28;20053;-89
2024/02/21 09:33:08;;;;;;;9.70;5.78;;;10.10;99.90;;;;;;4975574;28;20034;-87
2024/02/21 09:35:34;;;;;;;10.05;4.85;;;10.20;99.90;;;;;;4982461;28;20030;-89
2024/02/21 09:37:59;;;;;;;8.65;4.85;;;10.20;99.90;;;;;;4964593;28;20490;-89
2024/02/21 09:40:26;;;;;;;8.75;5.03;;;10.30;99.90;;;;;;4977712;28;20054;-91
2024/02/21 09:43:08;;;;;;;9.52;5.13;;;10.30;99.90;;;;;;4975400;28;20026;-88
2024/02/21 09:45:34;;;;;;;8.00;4.82;;;10.30;99.90;;;;;;4989148;28;20033;-89
2024/02/21 09:48:24;;;;;;;9.27;5.30;;;10.30;99.90;;;;;;4980370;28;20034;-88
2024/02/21 09:50:51;;;;;;;11.00;4.68;;;10.30;99.90;;;;;;4987921;28;20048;-87
2024/02/21 09:53:19;;;;;;;9.05;4.43;;;10.30;99.90;;;;;;4976035;28;20431;-85
2024/02/21 09:55:46;;;;;;;9.05;5.10;;;10.40;99.90;;;;;;4976729;28;20509;-88
2024/02/21 09:58:12;;;;;;;9.48;5.30;;;10.40;99.90;;;;;;4973836;28;20046;-92
2024/02/21 10:00:38;;;;;;;9.30;5.53;;;10.30;99.90;;;;;;4976330;28;20755;-90
2024/02/21 10:03:10;;;;;;;8.38;5.60;;;10.30;99.90;;;;;;4994651;28;20089;-89
2024/02/21 10:05:36;;;;;;;5.95;4.10;;;10.30;99.90;;;;;;4974279;28;20035;-86
2024/02/21 10:08:03;;;;;;;9.55;5.05;;;10.10;99.90;;;;;;4974851;28;20039;-85
2024/02/21 10:10:29;;;;;;;12.43;5.32;;;10.10;99.90;;;;;;4974603;28;20483;-88
2024/02/21 10:12:57;;;;;;;7.20;4.28;;;10.00;99.90;;;;;;4972907;28;20391;-86
2024/02/21 10:15:24;;;;;;;6.95;4.75;;;10.00;99.90;;;;;;4970594;28;20076;-87
2024/02/21 10:17:57;;;;;;;8.13;5.45;;;9.90;99.90;;;;;;4974605;28;20022;-87
2024/02/21 10:20:23;;;;;;;7.63;4.82;;;9.80;99.90;;;;;;4976067;28;20026;-87
2024/02/21 10:22:49;;;;;;;6.63;4.45;;;9.80;99.90;;;;;;4984212;28;20029;-87
2024/02/21 10:25:14;;;;;;;8.77;5.03;;;9.80;99.90;;;;;;4971794;28;20045;-90
2024/02/21 10:27:41;;;;;;;7.90;4.88;;;9.70;99.90;;;;;;4979658;28;20054;-86
2024/02/21 10:30:14;;;;;;;8.00;5.25;;;9.70;99.90;;;;;;4977168;28;20042;-86
2024/02/21 10:32:55;;;;;;;9.30;5.72;;;9.70;99.90;;;;;;4968860;28;20561;-85
2024/02/21 10:35:32;;;;;;;8.38;5.53;;;9.70;99.90;;;;;;4990061;28;20030;-85
2024/02/21 10:37:59;;;;;;;7.82;5.72;;;9.70;99.90;;;;;;4970329;28;20140;-85
2024/02/21 10:40:32;;;;;;;11.15;5.70;;;9.70;99.90;;;;;;4995332;28;20027;-86
2024/02/21 10:42:59;;;;;;;8.80;5.53;;;9.90;99.90;;;;;;4975747;28;20084;-85
2024/02/21 10:45:31;;;;;;;11.38;6.07;;;9.90;99.90;;;;;;4976039;28;20030;-86
2024/02/21 10:48:09;;;;;;;11.75;6.95;;;9.90;99.90;;;;;;4987783;28;20019;-86
2024/02/21 10:50:47;;;;;;;11.77;6.78;;;10.00;99.90;;;;;;4976217;28;20048;-86
2024/02/21 10:53:49;;;;;;;10.65;6.28;;;10.00;99.90;;;;;;4971479;28;20177;-86
2024/02/21 10:56:37;;;;;;;9.07;6.20;;;10.00;99.90;;;;;;4963343;28;20053;-86
2024/02/21 10:59:04;;;;;;;11.15;6.18;;;10.10;99.90;;;;;;4957068;28;20283;-85
2024/02/21 11:01:35;;;;;;;11.48;6.28;;;10.10;99.90;;;;;;4964481;28;20031;-86
2024/02/21 11:04:10;;;;;;;14.80;6.72;;;10.10;99.90;;;;;;4957496;28;20039;-87
2024/02/21 11:06:38;;;;;;;11.20;6.63;;;10.20;99.90;;;;;;4951904;28;20023;-86
2024/02/21 11:09:06;;;;;;;10.88;5.88;;;10.20;99.90;;;;;;4955401;28;20653;-87
2024/02/21 11:11:39;;;;;;;11.43;5.15;;;10.20;99.90;;;;;;4966910;28;20031;-86
2024/02/21 11:14:26;;;;;;;14.23;5.72;;;10.20;99.90;;;;;;4949561;28;20081;-85
2024/02/21 11:16:52;;;;;;;9.35;5.30;;;10.30;99.90;;;;;;4957591;28;20483;-87
2024/02/21 11:19:22;;;;;;;12.32;6.10;;;10.40;99.90;;;;;;4952380;28;20130;-86
2024/02/21 11:21:48;;;;;;;12.48;5.60;;;10.40;99.90;;;;;;4951043;28;20034;-85
2024/02/21 11:24:14;;;;;;;10.48;4.80;;;10.40;99.90;;;;;;4966399;28;20039;-84
2024/02/21 11:26:43;;;;;;;10.80;5.53;;;10.40;99.90;;;;;;4954238;28;20035;-86
2024/02/21 11:29:10;;;;;;;11.20;5.40;;;10.40;99.90;;;;;;4960844;28;20031;-84
2024/02/21 11:31:45;;;;;;;11.00;4.97;;;10.40;99.90;;;;;;4976478;28;20069;-84
2024/02/21 11:34:12;;;;;;;11.73;4.50;;;10.40;99.90;;;;;;4959004;28;20031;-86
2024/02/21 11:36:51;;;;;;;10.32;4.50;;;10.40;99.90;;;;;;4972267;28;20026;-86
2024/02/21 11:39:25;;;;;;;11.00;4.40;;;10.50;99.90;;;;;;4962738;28;20023;-86
2024/02/21 11:42:07;;;;;;;9.25;4.07;;;10.50;99.90;;;;;;4964010;28;20062;-86
2024/02/21 11:44:34;;;;;;;;;;;10.50;99.90;;;;;;4972261;28;20027;-86
2024/02/21 11:46:59;;;;;;;9.20;3.95;;;10.40;99.90;;;;;;4974586;28;19910;-86
2024/02/21 11:49:26;;;;;;;8.23;3.92;;;10.40;99.90;;;;;;4973438;28;20037;-86
2024/02/21 11:52:00;;;;;;;11.63;3.88;;;10.50;99.90;;;;;;4968262;28;20037;-85
2024/02/21 11:54:26;;;;;;;9.63;4.35;;;10.50;99.90;;;;;;4960483;28;20031;-85
2024/02/21 11:56:52;;;;;;;9.95;3.45;;;10.50;99.90;;;;;;4961765;28;20051;-85
2024/02/21 11:59:17;;;;;;;8.13;3.63;;;10.60;99.90;;;;;;4964868;28;20038;-86
2024/02/21 12:01:43;;;;;;;9.48;3.40;;;10.70;99.90;;;;;;4972868;28;20066;-85
2024/02/21 12:04:08;;;;;;;10.60;3.55;;;10.80;99.90;;;;;;4963862;28;20026;-86
2024/02/21 12:06:34;;;;;;;7.40;3.15;;;10.80;99.90;;;;;;4973809;28;20041;-85
2024/02/21 12:09:00;;;;;;;9.05;4.15;;;10.90;99.90;;;;;;4956713;28;20050;-87
2024/02/21 12:11:26;;;;;;;9.98;3.67;;;10.90;99.90;;;;;;4970731;28;20047;-85
2024/02/21 12:14:03;;;;;;;9.25;3.25;;;10.90;99.90;;;;;;4959196;28;20030;-86
2024/02/21 12:16:38;;;;;;;10.20;3.30;;;10.90;99.90;;;;;;4974826;28;20113;-87
2024/02/21 12:19:04;;;;;;;8.38;3.53;;;11.00;99.90;;;;;;4960291;28;20450;-87
2024/02/21 12:21:32;;;;;;;6.63;3.33;;;11.20;99.90;;;;;;4955675;28;20034;-96
2024/02/21 12:23:58;;;;;;;7.50;3.25;;;11.30;99.90;;;;;;4955300;28;20034;-86
2024/02/21 12:26:24;;;;;;;8.73;3.50;;;11.30;99.90;;;;;;4948228;28;20023;-86
2024/02/21 12:28:50;;;;;;;8.93;2.75;;;11.40;99.90;;;;;;4955438;28;20038;-87
2024/02/21 12:31:16;;;;;;;8.25;3.55;;;11.50;99.90;;;;;;4954605;28;20146;-86
2024/02/21 12:33:43;;;;;;;6.15;2.38;;;11.40;99.90;;;;;;4952978;28;20061;-86
2024/02/21 12:36:08;;;;;;;7.88;3.10;;;11.40;99.90;;;;;;4957655;28;20030;-86
2024/02/21 12:38:35;;;;;;;7.32;2.75;;;11.40;99.90;;;;;;4969720;28;20030;-85
2024/02/21 12:41:01;;;;;;;11.02;3.00;;;11.40;99.90;;;;;;4974088;28;20030;-86
2024/02/21 12:43:26;;;;;;;6.03;2.35;;;11.50;99.90;;;;;;4958724;28;20035;-85